createdAt,value
2023-04-06T00:02:10.520Z,101788.09
2023-04-06T00:04:37.127Z,101801.19
2023-04-06T00:07:03.781Z,101796.03
2023-04-06T00:09:30.301Z,101792.81
2023-04-06T00:11:57.444Z,101766.38
2023-04-06T00:14:24.208Z,101777.59
2023-04-06T00:16:50.984Z,101791.28
2023-04-06T00:19:17.604Z,101788.53
2023-04-06T00:21:44.122Z,101787.00
2023-04-06T00:24:10.892Z,101792.09
2023-04-06T00:26:37.345Z,101787.72
2023-04-06T00:29:03.807Z,101756.78
2023-04-06T00:31:30.308Z,101761.88
2023-04-06T00:33:56.802Z,101778.97
2023-04-06T00:36:23.411Z,101781.63
2023-04-06T00:38:49.901Z,101781.72
2023-04-06T00:41:16.365Z,101748.34
2023-04-06T00:43:43.013Z,101772.25
2023-04-06T00:46:09.509Z,101742.34
2023-04-06T00:48:36.147Z,101763.69
2023-04-06T00:51:02.897Z,101709.13
2023-04-06T00:53:29.400Z,101768.34
2023-04-06T00:55:55.853Z,101763.19
2023-04-06T00:58:22.408Z,101756.66
2023-04-06T01:00:48.976Z,101768.81
2023-04-06T01:03:15.517Z,101741.47
2023-04-06T01:05:43.439Z,101761.34
2023-04-06T01:08:10.394Z,101754.38
2023-04-06T01:10:37.207Z,101764.09
2023-04-06T01:13:03.740Z,101739.94
2023-04-06T01:15:30.818Z,101739.00
2023-04-06T01:17:57.382Z,101726.59
2023-04-06T01:20:23.915Z,101745.91
2023-04-06T01:22:50.605Z,101744.22
2023-04-06T01:25:17.374Z,101746.84
2023-04-06T01:27:43.913Z,101746.84
2023-04-06T01:30:10.710Z,101745.22
2023-04-06T01:32:37.366Z,101737.59
2023-04-06T01:35:04.298Z,101714.47
2023-04-06T01:37:33.095Z,101740.97
2023-04-06T01:40:00.611Z,101729.28
2023-04-06T01:42:27.251Z,101733.50
2023-04-06T01:44:53.729Z,101719.03
2023-04-06T01:47:20.354Z,101724.25
2023-04-06T01:49:46.842Z,101740.53
2023-04-06T01:52:13.318Z,101700.31
2023-04-06T01:54:39.816Z,101739.78
2023-04-06T01:57:06.442Z,101728.63
2023-04-06T01:59:32.938Z,101704.91
2023-04-06T02:01:59.461Z,101728.69
2023-04-06T02:04:25.959Z,101717.63
2023-04-06T02:06:52.429Z,101698.72
2023-04-06T02:09:18.921Z,101682.41
2023-04-06T02:11:45.440Z,101700.38
2023-04-06T02:14:11.926Z,101713.22
2023-04-06T02:16:38.503Z,101689.19
2023-04-06T02:19:05.329Z,101710.59
2023-04-06T02:21:31.862Z,101709.75
2023-04-06T02:23:58.299Z,101690.38
2023-04-06T02:26:24.870Z,101710.66
2023-04-06T02:28:51.430Z,101709.84
2023-04-06T02:31:18.039Z,101698.00
2023-04-06T02:33:44.739Z,101707.53
2023-04-06T02:36:11.221Z,101705.75
2023-04-06T02:38:37.710Z,101705.00
2023-04-06T02:41:04.212Z,101710.25
2023-04-06T02:43:30.799Z,101707.69
2023-04-06T02:45:57.347Z,101632.44
2023-04-06T02:48:23.873Z,101712.94
2023-04-06T02:50:50.400Z,101696.66
2023-04-06T02:53:16.935Z,101704.25
2023-04-06T02:55:43.467Z,101711.28
2023-04-06T02:58:10.504Z,101706.91
2023-04-06T03:00:38.587Z,101706.09
2023-04-06T03:03:05.406Z,101688.84
2023-04-06T03:05:31.953Z,101702.66
2023-04-06T03:07:58.457Z,101702.66
2023-04-06T03:10:25.063Z,101692.34
2023-04-06T03:12:51.657Z,101701.78
2023-04-06T03:15:18.717Z,101693.91
2023-04-06T03:17:45.385Z,101668.47
2023-04-06T03:20:12.125Z,101677.72
2023-04-06T03:22:38.622Z,101704.47
2023-04-06T03:25:05.586Z,101708.72
2023-04-06T03:27:32.515Z,101659.75
2023-04-06T03:29:59.027Z,101694.72
2023-04-06T03:32:25.702Z,101702.28
2023-04-06T03:34:52.253Z,101660.34
2023-04-06T03:37:18.843Z,101692.09
2023-04-06T03:39:45.289Z,101663.50
2023-04-06T03:42:11.717Z,101711.41
2023-04-06T03:44:38.217Z,101717.38
2023-04-06T03:47:04.798Z,101685.53
2023-04-06T03:49:31.338Z,101665.69
2023-04-06T03:51:57.936Z,101715.28
2023-04-06T03:54:24.424Z,101704.81
2023-04-06T03:56:51.327Z,101710.50
2023-04-06T03:59:17.876Z,101702.63
2023-04-06T04:01:44.460Z,101719.16
2023-04-06T04:04:11.461Z,101691.56
2023-04-06T04:06:38.283Z,101686.53
2023-04-06T04:09:04.767Z,101676.47
2023-04-06T04:11:31.272Z,101711.38
2023-04-06T04:13:57.811Z,101723.59
2023-04-06T04:16:24.375Z,101716.69
2023-04-06T04:18:51.087Z,101701.41
2023-04-06T04:21:17.620Z,101710.13
2023-04-06T04:23:44.076Z,101721.41
2023-04-06T04:26:11.066Z,101725.72
2023-04-06T04:28:38.094Z,101724.94
2023-04-06T04:31:04.603Z,101697.78
2023-04-06T04:33:31.334Z,101722.53
2023-04-06T04:35:57.910Z,101719.91
2023-04-06T04:38:24.671Z,101718.25
2023-04-06T04:40:51.157Z,101719.34
2023-04-06T04:43:17.601Z,101728.03
2023-04-06T04:45:44.244Z,101726.31
2023-04-06T04:48:11.147Z,101728.13
2023-04-06T04:50:37.629Z,101729.06
2023-04-06T04:53:06.998Z,101725.56
2023-04-06T04:55:33.703Z,101722.19
2023-04-06T04:58:00.324Z,101731.88
2023-04-06T05:00:26.839Z,101717.19
2023-04-06T05:02:53.378Z,101724.72
2023-04-06T05:05:19.940Z,101718.66
2023-04-06T05:07:46.670Z,101701.63
2023-04-06T05:10:13.482Z,101709.22
2023-04-06T05:12:40.937Z,101731.63
2023-04-06T05:15:08.003Z,101724.66
2023-04-06T05:17:34.919Z,101726.31
2023-04-06T05:20:01.542Z,101718.09
2023-04-06T05:22:28.031Z,101649.00
2023-04-06T05:24:54.473Z,101725.09
2023-04-06T05:27:21.144Z,101721.63
2023-04-06T05:29:47.652Z,101710.25
2023-04-06T05:32:14.875Z,101724.63
2023-04-06T05:34:41.737Z,101724.50
2023-04-06T05:37:08.206Z,101727.88
2023-04-06T05:39:34.664Z,101723.59
2023-04-06T05:42:07.573Z,101701.84
2023-04-06T05:44:34.306Z,101727.56
2023-04-06T05:47:01.165Z,101726.44
2023-04-06T05:49:27.757Z,101726.22
2023-04-06T05:51:54.308Z,101726.81
2023-04-06T05:54:21.090Z,101730.91
2023-04-06T05:56:47.548Z,101701.31
2023-04-06T05:59:14.124Z,101711.38
2023-04-06T06:01:40.948Z,101724.59
2023-04-06T06:04:07.497Z,101722.56
2023-04-06T06:06:33.930Z,101675.13
2023-04-06T06:09:01.730Z,101726.88
2023-04-06T06:11:28.435Z,101731.59
2023-04-06T06:13:54.919Z,101725.09
2023-04-06T06:16:22.015Z,101677.84
2023-04-06T06:18:48.699Z,101686.47
2023-04-06T06:21:15.934Z,101734.94
2023-04-06T06:23:44.126Z,101697.19
2023-04-06T06:26:10.606Z,101726.88
2023-04-06T06:28:37.254Z,101669.88
2023-04-06T06:31:03.796Z,101724.81
2023-04-06T06:33:30.572Z,101724.22
2023-04-06T06:35:57.264Z,101727.16
2023-04-06T06:38:24.148Z,101731.84
2023-04-06T06:40:50.662Z,101723.41
2023-04-06T06:43:17.191Z,101731.28
2023-04-06T06:45:43.839Z,101719.03
2023-04-06T06:48:10.408Z,101682.78
2023-04-06T06:50:37.071Z,101727.91
2023-04-06T06:53:03.587Z,101712.13
2023-04-06T06:55:31.666Z,101721.22
2023-04-06T06:57:58.223Z,101717.25
2023-04-06T07:00:24.866Z,101718.66
2023-04-06T07:02:51.653Z,101709.03
2023-04-06T07:05:27.538Z,101728.47
2023-04-06T07:07:55.529Z,101714.84
2023-04-06T07:10:22.359Z,101695.34
2023-04-06T07:12:48.974Z,101700.72
2023-04-06T07:15:15.596Z,101692.75
2023-04-06T07:17:46.408Z,101706.53
2023-04-06T07:20:13.735Z,101718.44
2023-04-06T07:22:41.201Z,101718.16
2023-04-06T07:25:08.127Z,101702.47
2023-04-06T07:27:34.931Z,101723.47
2023-04-06T07:30:01.556Z,101719.34
2023-04-06T07:32:28.082Z,101692.78
2023-04-06T07:34:54.783Z,101681.56
2023-04-06T07:37:21.375Z,101712.88
2023-04-06T07:39:47.896Z,101720.59
2023-04-06T07:42:14.370Z,101715.47
2023-04-06T07:44:40.890Z,101716.41
2023-04-06T07:47:07.388Z,101716.41
2023-04-06T07:49:33.932Z,101705.41
2023-04-06T07:52:00.578Z,101676.81
2023-04-06T07:54:27.098Z,101681.66
2023-04-06T07:56:53.556Z,101708.56
2023-04-06T07:59:20.507Z,101709.84
2023-04-06T08:01:47.001Z,101675.88
2023-04-06T08:04:13.691Z,101697.97
2023-04-06T08:06:41.930Z,101700.00
2023-04-06T08:09:08.378Z,101702.19
2023-04-06T08:11:35.402Z,101698.63
2023-04-06T08:14:02.096Z,101680.94
2023-04-06T08:16:28.957Z,101691.31
2023-04-06T08:18:56.622Z,101699.59
2023-04-06T08:21:23.330Z,101696.50
2023-04-06T08:23:50.041Z,101686.34
2023-04-06T08:26:16.539Z,101689.59
2023-04-06T08:28:45.680Z,101692.59
2023-04-06T08:31:13.295Z,101687.53
2023-04-06T08:33:40.285Z,101693.13
2023-04-06T08:36:14.646Z,101694.22
2023-04-06T08:38:42.517Z,101691.44
2023-04-06T08:41:10.748Z,101693.38
2023-04-06T08:43:56.053Z,101684.63
2023-04-06T08:46:24.151Z,101692.28
2023-04-06T08:48:51.175Z,101683.19
2023-04-06T08:51:18.809Z,101671.41
2023-04-06T08:53:45.633Z,101658.88
2023-04-06T08:56:13.148Z,101681.31
2023-04-06T08:58:41.507Z,101681.41
2023-04-06T09:01:10.176Z,101691.44
2023-04-06T09:03:41.259Z,101676.59
2023-04-06T09:06:09.010Z,101693.66
2023-04-06T09:08:36.796Z,101693.50
2023-04-06T09:11:04.115Z,101678.41
2023-04-06T09:13:31.397Z,101668.34
2023-04-06T09:16:07.237Z,101646.53
2023-04-06T09:18:35.207Z,101680.69
2023-04-06T09:21:07.284Z,101683.22
2023-04-06T09:23:34.501Z,101678.09
2023-04-06T09:26:15.597Z,101672.81
2023-04-06T09:28:46.513Z,101669.19
2023-04-06T09:31:15.003Z,101669.16
2023-04-06T09:33:43.492Z,101670.50
2023-04-06T09:36:10.939Z,101648.03
2023-04-06T09:38:52.620Z,101665.28
2023-04-06T09:41:24.606Z,101648.78
2023-04-06T09:43:52.951Z,101634.22
2023-04-06T09:46:22.360Z,101651.59
2023-04-06T09:48:50.593Z,101649.53
2023-04-06T09:51:21.231Z,101624.88
2023-04-06T09:53:53.038Z,101644.31
2023-04-06T09:56:24.600Z,101639.44
2023-04-06T09:58:57.587Z,101626.16
2023-04-06T10:01:29.167Z,101637.34
2023-04-06T10:04:01.950Z,101632.59
2023-04-06T10:06:33.821Z,101628.06
2023-04-06T10:09:02.647Z,101628.91
2023-04-06T10:11:30.426Z,101633.22
2023-04-06T10:13:57.737Z,101618.75
2023-04-06T10:16:26.078Z,101627.53
2023-04-06T10:19:02.876Z,101629.78
2023-04-06T10:21:31.673Z,101628.78
2023-04-06T10:24:05.458Z,101628.28
2023-04-06T10:26:32.627Z,101604.72
2023-04-06T10:29:04.813Z,101618.19
2023-04-06T10:31:31.618Z,101636.75
2023-04-06T10:34:00.527Z,101628.53
2023-04-06T10:36:29.040Z,101622.97
2023-04-06T10:38:58.825Z,101625.69
2023-04-06T10:41:33.486Z,101606.63
2023-04-06T10:44:00.471Z,101598.53
2023-04-06T10:46:28.619Z,101609.53
2023-04-06T10:48:55.779Z,101586.88
2023-04-06T10:51:29.708Z,101601.63
2023-04-06T10:53:56.745Z,101608.03
2023-04-06T10:56:33.461Z,101608.16
2023-04-06T10:59:00.142Z,101606.63
2023-04-06T11:01:28.357Z,101612.56
2023-04-06T11:03:59.193Z,101608.63
2023-04-06T11:06:29.763Z,101609.47
2023-04-06T11:08:56.915Z,101596.28
2023-04-06T11:11:27.505Z,101599.44
2023-04-06T11:13:55.821Z,101579.66
2023-04-06T11:16:28.079Z,101555.13
2023-04-06T11:19:03.577Z,101588.44
2023-04-06T11:21:40.016Z,101576.44
2023-04-06T11:24:06.501Z,101592.22
2023-04-06T11:26:37.442Z,101586.41
2023-04-06T11:29:04.102Z,101587.16
2023-04-06T11:31:30.665Z,101555.72
2023-04-06T11:34:00.210Z,101565.63
2023-04-06T11:36:30.964Z,101550.06
2023-04-06T11:38:57.688Z,101578.69
2023-04-06T11:41:26.821Z,101582.03
2023-04-06T11:43:56.616Z,101573.69
2023-04-06T11:46:23.217Z,101584.38
2023-04-06T11:48:49.841Z,101582.31
2023-04-06T11:51:24.786Z,101561.91
2023-04-06T11:53:51.540Z,101575.47
2023-04-06T11:56:26.324Z,101510.25
2023-04-06T11:58:54.958Z,101564.78
2023-04-06T12:01:21.777Z,101566.84
2023-04-06T12:03:48.365Z,101557.69
2023-04-06T12:06:15.594Z,101563.94
2023-04-06T12:11:36.160Z,101544.25
2023-04-06T12:14:05.598Z,101536.53
2023-04-06T12:16:32.638Z,101551.81
2023-04-06T12:18:59.172Z,101542.38
2023-04-06T12:21:25.783Z,101547.34
2023-04-06T12:23:52.621Z,101554.81
2023-04-06T12:26:19.141Z,101513.59
2023-04-06T12:28:45.876Z,101527.94
2023-04-06T12:31:19.293Z,101541.47
2023-04-06T12:33:50.383Z,101537.38
2023-04-06T12:36:22.176Z,101540.66
2023-04-06T12:38:49.724Z,101544.84
2023-04-06T12:41:16.325Z,101545.13
2023-04-06T12:43:43.983Z,101535.81
2023-04-06T12:46:11.134Z,101531.59
2023-04-06T12:48:37.976Z,101523.56
2023-04-06T12:51:06.734Z,101530.38
2023-04-06T12:53:34.426Z,101535.31
2023-04-06T12:56:01.591Z,101524.94
2023-04-06T12:58:29.210Z,101516.16
2023-04-06T13:00:56.923Z,101526.88
2023-04-06T13:03:23.570Z,101528.94
2023-04-06T13:05:54.724Z,101507.94
2023-04-06T13:08:21.526Z,101509.91
2023-04-06T13:10:51.881Z,101512.06
2023-04-06T13:13:21.260Z,101495.44
2023-04-06T13:15:47.775Z,101504.31
2023-04-06T13:18:14.376Z,101441.28
2023-04-06T13:20:41.180Z,101505.06
2023-04-06T13:23:07.612Z,101505.66
2023-04-06T13:25:34.278Z,101488.91
2023-04-06T13:28:00.832Z,101503.13
2023-04-06T13:30:27.582Z,101489.09
2023-04-06T13:32:54.217Z,101496.69
2023-04-06T13:35:21.516Z,101495.66
2023-04-06T13:37:49.239Z,101456.50
2023-04-06T13:40:16.114Z,101464.44
2023-04-06T13:42:45.084Z,101484.25
2023-04-06T13:45:12.073Z,101485.38
2023-04-06T13:47:38.736Z,101487.53
2023-04-06T13:50:05.825Z,101480.59
2023-04-06T13:52:32.364Z,101491.06
2023-04-06T13:54:58.805Z,101490.88
2023-04-06T13:57:25.390Z,101479.59
2023-04-06T13:59:51.943Z,101481.06
2023-04-06T14:02:19.240Z,101484.06
2023-04-06T14:04:45.930Z,101447.66
2023-04-06T14:07:12.442Z,101465.19
2023-04-06T14:09:38.872Z,101486.69
2023-04-06T14:12:05.512Z,101482.00
2023-04-06T14:14:31.940Z,101488.19
2023-04-06T14:16:58.493Z,101477.44
2023-04-06T14:19:25.013Z,101459.41
2023-04-06T14:21:51.571Z,101482.50
2023-04-06T14:24:18.806Z,101470.81
2023-04-06T14:26:45.294Z,101476.06
2023-04-06T14:29:12.053Z,101466.47
2023-04-06T14:31:38.622Z,101452.75
2023-04-06T14:34:05.130Z,101436.53
2023-04-06T14:36:39.251Z,101411.91
2023-04-06T14:39:09.113Z,101380.00
2023-04-06T14:41:36.058Z,101463.06
2023-04-06T14:44:02.710Z,101462.75
2023-04-06T14:46:29.318Z,101464.91
2023-04-06T14:48:59.709Z,101451.91
2023-04-06T14:51:28.306Z,101457.72
2023-04-06T14:53:55.314Z,101459.97
2023-04-06T14:56:25.089Z,101455.09
2023-04-06T14:58:52.344Z,101459.59
2023-04-06T15:01:21.926Z,101463.03
2023-04-06T15:03:48.835Z,101452.75
2023-04-06T15:06:16.417Z,101443.34
2023-04-06T15:08:43.862Z,101434.56
2023-04-06T15:11:10.693Z,101452.69
2023-04-06T15:13:37.799Z,101450.53
2023-04-06T15:16:05.017Z,101450.72
2023-04-06T15:18:31.598Z,101445.66
2023-04-06T15:20:58.212Z,101444.63
2023-04-06T15:23:24.706Z,101443.34
2023-04-06T15:25:51.708Z,101380.88
2023-04-06T15:28:19.760Z,101420.00
2023-04-06T15:30:48.213Z,101448.00
2023-04-06T15:33:14.642Z,101440.81
2023-04-06T15:35:43.068Z,101418.56
2023-04-06T15:38:10.708Z,101431.84
2023-04-06T15:40:45.698Z,101445.00
2023-04-06T15:43:12.777Z,101445.28
2023-04-06T15:45:39.673Z,101439.13
2023-04-06T15:48:07.342Z,101430.34
2023-04-06T15:50:34.724Z,101437.09
2023-04-06T15:53:01.308Z,101431.09
2023-04-06T15:55:27.887Z,101418.59
2023-04-06T15:57:54.314Z,101385.34
2023-04-06T16:00:21.336Z,101401.41
2023-04-06T16:02:47.950Z,101442.22
2023-04-06T16:05:14.609Z,101432.00
2023-04-06T16:07:44.019Z,101413.59
2023-04-06T16:10:11.894Z,101386.84
2023-04-06T16:12:40.002Z,101449.28
2023-04-06T16:15:07.307Z,101436.56
2023-04-06T16:17:33.771Z,101391.44
2023-04-06T16:20:00.341Z,101416.03
2023-04-06T16:22:28.623Z,101427.50
2023-04-06T16:24:55.037Z,101436.66
2023-04-06T16:27:21.512Z,101432.16
2023-04-06T16:29:47.959Z,101436.38
2023-04-06T16:32:14.452Z,101437.75
2023-04-06T16:34:41.085Z,101441.66
2023-04-06T16:37:07.590Z,101439.50
2023-04-06T16:39:34.085Z,101438.56
2023-04-06T16:42:01.651Z,101430.50
2023-04-06T16:44:29.423Z,101443.56
2023-04-06T16:46:56.523Z,101437.38
2023-04-06T16:49:23.023Z,101427.34
2023-04-06T16:51:49.772Z,101433.56
2023-04-06T16:54:16.636Z,101432.78
2023-04-06T16:56:43.371Z,101430.13
2023-04-06T16:59:09.834Z,101431.66
2023-04-06T17:01:36.450Z,101435.03
2023-04-06T17:04:03.362Z,101435.16
2023-04-06T17:06:29.864Z,101353.88
2023-04-06T17:08:56.549Z,101425.78
2023-04-06T17:11:28.605Z,101433.31
2023-04-06T17:13:59.313Z,101443.94
2023-04-06T17:16:27.800Z,101449.59
2023-04-06T17:18:57.198Z,101434.78
2023-04-06T17:21:23.882Z,101452.78
2023-04-06T17:23:50.671Z,101446.25
2023-04-06T17:26:17.253Z,101448.78
2023-04-06T17:28:44.298Z,101443.31
2023-04-06T17:31:11.864Z,101450.00
2023-04-06T17:33:39.941Z,101448.53
2023-04-06T17:36:11.103Z,101462.31
2023-04-06T17:38:39.485Z,101453.22
2023-04-06T17:41:07.552Z,101457.94
2023-04-06T17:43:33.980Z,101456.19
2023-04-06T17:46:00.630Z,101460.75
2023-04-06T17:48:29.215Z,101464.59
2023-04-06T17:50:56.037Z,101447.28
2023-04-06T17:53:22.601Z,101471.38
2023-04-06T17:55:49.092Z,101428.81
2023-04-06T17:58:15.617Z,101483.25
2023-04-06T18:00:42.056Z,101482.50
2023-04-06T18:03:08.538Z,101459.09
2023-04-06T18:05:35.116Z,101463.63
2023-04-06T18:08:01.723Z,101490.53
2023-04-06T18:10:28.148Z,101466.78
2023-04-06T18:12:54.591Z,101494.13
2023-04-06T18:15:21.298Z,101458.00
2023-04-06T18:17:47.736Z,101488.88
2023-04-06T18:20:15.824Z,101481.63
2023-04-06T18:22:42.606Z,101490.75
2023-04-06T18:25:09.529Z,101501.75
2023-04-06T18:27:36.106Z,101497.91
2023-04-06T18:30:03.914Z,101502.59
2023-04-06T18:32:30.524Z,101456.25
2023-04-06T18:34:57.780Z,101507.44
2023-04-06T18:37:25.530Z,101514.41
2023-04-06T18:39:53.479Z,101515.19
2023-04-06T18:42:20.069Z,101508.84
2023-04-06T18:44:46.927Z,101501.09
2023-04-06T18:47:13.576Z,101511.47
2023-04-06T18:49:40.370Z,101501.81
2023-04-06T18:52:06.906Z,101513.66
2023-04-06T18:54:33.449Z,101515.19
2023-04-06T18:56:59.907Z,101505.53
2023-04-06T18:59:30.098Z,101460.50
2023-04-06T19:01:56.683Z,101524.94
2023-04-06T19:04:23.390Z,101529.22
2023-04-06T19:06:49.988Z,101521.38
2023-04-06T19:09:16.485Z,101529.50
2023-04-06T19:11:42.880Z,101529.38
2023-04-06T19:14:09.356Z,101530.63
2023-04-06T19:16:40.859Z,101532.81
2023-04-06T19:19:07.546Z,101529.53
2023-04-06T19:21:34.016Z,101511.22
2023-04-06T19:24:01.254Z,101541.53
2023-04-06T19:26:30.246Z,101502.13
2023-04-06T19:28:56.718Z,101534.78
2023-04-06T19:31:23.507Z,101531.38
2023-04-06T19:33:50.141Z,101506.38
2023-04-06T19:36:16.870Z,101501.28
2023-04-06T19:38:43.475Z,101531.47
2023-04-06T19:41:10.001Z,101547.59
2023-04-06T19:43:36.825Z,101532.06
2023-04-06T19:46:04.656Z,101533.16
2023-04-06T19:48:33.707Z,101544.19
2023-04-06T19:51:00.364Z,101484.78
2023-04-06T19:53:27.214Z,101539.31
2023-04-06T19:55:53.783Z,101543.81
2023-04-06T19:58:21.564Z,101541.59
2023-04-06T20:00:47.985Z,101501.63
2023-04-06T20:03:14.575Z,101544.16
2023-04-06T20:05:41.501Z,101493.34
2023-04-06T20:08:08.921Z,101549.88
2023-04-06T20:10:35.732Z,101531.16
2023-04-06T20:13:02.372Z,101526.56
2023-04-06T20:15:29.748Z,101534.34
2023-04-06T20:17:56.465Z,101544.25
2023-04-06T20:20:22.916Z,101525.31
2023-04-06T20:22:50.160Z,101496.00
2023-04-06T20:25:17.871Z,101542.31
2023-04-06T20:27:45.459Z,101521.56
2023-04-06T20:30:14.464Z,101545.56
2023-04-06T20:32:41.005Z,101544.81
2023-04-06T20:35:07.819Z,101541.47
2023-04-06T20:37:36.015Z,101549.69
2023-04-06T20:40:03.847Z,101521.78
2023-04-06T20:42:30.399Z,101544.56
2023-04-06T20:44:58.070Z,101514.13
2023-04-06T20:47:24.507Z,101550.34
2023-04-06T20:49:50.996Z,101526.59
2023-04-06T20:52:17.583Z,101513.75
2023-04-06T20:54:44.035Z,101520.91
2023-04-06T20:57:10.645Z,101532.88
2023-04-06T20:59:37.775Z,101533.84
2023-04-06T21:02:04.296Z,101534.09
2023-04-06T21:04:31.122Z,101535.06
2023-04-06T21:06:57.751Z,101530.81
2023-04-06T21:09:26.643Z,101540.59
2023-04-06T21:11:53.092Z,101532.31
2023-04-06T21:14:21.029Z,101529.19
2023-04-06T21:16:47.713Z,101511.47
2023-04-06T21:19:14.239Z,101537.28
2023-04-06T21:21:40.874Z,101531.44
2023-04-06T21:24:07.679Z,101504.97
2023-04-06T21:26:36.672Z,101520.22
2023-04-06T21:29:03.104Z,101519.38
2023-04-06T21:31:29.563Z,101529.81
2023-04-06T21:33:56.275Z,101529.91
2023-04-06T21:36:23.128Z,101535.34
2023-04-06T21:38:49.529Z,101484.38
2023-04-06T21:41:15.942Z,101508.16
2023-04-06T21:43:42.406Z,101529.53
2023-04-06T21:46:08.966Z,101519.53
2023-04-06T21:48:35.457Z,101534.97
2023-04-06T21:51:01.889Z,101535.19
2023-04-06T21:53:28.329Z,101529.00
2023-04-06T21:55:54.788Z,101522.22
2023-04-06T21:58:21.711Z,101522.25
2023-04-06T22:00:48.487Z,101524.59
2023-04-06T22:03:15.220Z,101537.38
2023-04-06T22:05:41.851Z,101517.63
2023-04-06T22:08:09.652Z,101531.88
2023-04-06T22:10:39.573Z,101516.53
2023-04-06T22:13:06.245Z,101516.25
2023-04-06T22:15:32.786Z,101485.75
2023-04-06T22:17:59.452Z,101521.03
2023-04-06T22:20:26.159Z,101513.63
2023-04-06T22:22:52.562Z,101509.56
2023-04-06T22:25:19.062Z,101528.47
2023-04-06T22:27:45.680Z,101486.75
2023-04-06T22:30:12.314Z,101486.00
2023-04-06T22:32:38.798Z,101519.25
2023-04-06T22:35:05.845Z,101523.19
2023-04-06T22:37:32.668Z,101505.88
2023-04-06T22:39:59.105Z,101481.22
2023-04-06T22:42:26.210Z,101506.63
2023-04-06T22:44:52.711Z,101522.34
2023-04-06T22:47:19.313Z,101525.31
2023-04-06T22:49:45.920Z,101522.03
2023-04-06T22:52:12.368Z,101526.63
2023-04-06T22:54:38.999Z,101532.13
2023-04-06T22:57:05.839Z,101538.50
2023-04-06T22:59:32.248Z,101529.16
2023-04-06T23:01:58.753Z,101537.13
2023-04-06T23:04:25.718Z,101520.88
2023-04-06T23:06:52.419Z,101533.00
2023-04-06T23:09:18.924Z,101467.31
2023-04-06T23:11:45.541Z,101536.06
2023-04-06T23:14:12.058Z,101441.25
2023-04-06T23:16:38.551Z,101540.09
2023-04-06T23:19:05.041Z,101541.44
2023-04-06T23:21:33.162Z,101539.75
2023-04-06T23:24:00.792Z,101534.31
2023-04-06T23:26:27.390Z,101520.59
2023-04-06T23:28:53.856Z,101517.09
2023-04-06T23:31:20.326Z,101541.22
2023-04-06T23:33:46.744Z,101544.00
2023-04-06T23:36:13.362Z,101537.19
2023-04-06T23:38:39.828Z,101549.50
2023-04-06T23:41:06.414Z,101540.88
2023-04-06T23:43:32.852Z,101540.03
2023-04-06T23:45:59.276Z,101541.94
2023-04-06T23:48:25.741Z,101504.72
2023-04-06T23:50:52.653Z,101519.31
2023-04-06T23:53:19.151Z,101543.97
2023-04-06T23:55:45.678Z,101541.41
2023-04-06T23:58:12.121Z,101542.38
